Sweeney Granite Mountains, California Weather observations

Data are for 10 minute period ending at time listed.
 Day   Time   Solar   Ave.   Ave.  Ave.  Vector  Max.   Baro.   Total    
  of    of     Rad.   Air    Rel.  Wind   Wind   Wind  Press.  Precip.   
Year   Day            Temp.  Hum.  Speed  Dir.   Gust                    
2016   (PST)  Kw/m2    F      %     mph   deg.    mph    mb.     in.     
-------------------------------------------------------------------------
 338   11:10   0.57   42.7    15   23.9   298    41.2   872.0    0.00 
 338   11:20   0.58   43.2    16   21.1   304    37.8   872.0    0.00 
 338   11:30   0.58   43.5    15   20.3   309    34.7   871.9    0.00 
 338   11:40   0.58   45.2    12   13.6   320    28.2   871.7    0.00 
 338   11:50   0.58   45.5    12   18.5   308    33.6   871.6    0.00 
 338   12:00   0.58   45.2    13   15.1   310    31.9   871.6    0.00 
 338   12:10   0.57   45.1    13   16.7   300    29.2   871.5    0.00 
 338   12:20   0.56   45.4    13   17.6   302    32.0   871.5    0.00 
 338   12:30   0.56   45.8    13   17.2   309    30.3   871.5    0.00 
 338   12:40   0.55   46.1    12   17.9   301    39.2   871.4    0.00 
 338   12:50   0.53   46.2    12   18.3   310    31.7   871.2    0.00 
 338   13:00   0.52   46.5    12   19.1   302    38.4   870.9    0.00 
 338   13:10   0.51   46.6    12   19.8   310    36.8   870.9    0.00 
 338   13:20   0.49   46.4    13   20.5   304    33.3   870.7    0.00 
 338   13:30   0.47   46.2    13   20.5   311    34.9   870.8    0.00 
 338   13:40   0.46   46.4    13   17.8   317    27.5   870.9    0.00 
 338   13:50   0.43   46.6    13   17.8   316    30.7   870.9    0.00 
 338   14:00   0.41   46.6    13   19.0   302    32.3   870.9    0.00 
 338   14:10   0.39   46.3    13   19.0   295    38.0   870.9    0.00 
 338   14:20   0.36   47.2    13   17.7   305    34.8   870.9    0.00 
 338   14:30   0.34   46.3    13   17.7   303    29.7   871.1    0.00 
 338   14:40   0.31   46.9    13   11.9   315    27.0   871.2    0.00 
 338   14:50   0.29   46.7    13   16.3   311    27.5   871.0    0.00 
 338   15:00   0.26   46.7    13   15.9   312    26.3   870.9    0.00 
 338   15:10   0.23   46.9    13   13.9   325    25.9   871.0    0.00 
 338   15:20   0.20   46.4    14   18.8   310    37.7   871.0    0.00 
 338   15:30   0.05   45.3    14   23.9   297    37.6   870.8    0.00 
 338   15:40   0.01   45.5    14   18.0   303    29.9   870.9    0.00 
 338   15:50   0.01   45.3    14   19.9   301    31.0   870.8    0.00 
 338   16:00   0.01   45.3    14   16.3   309    29.2   870.9    0.00 
 338   16:10   0.01   45.2    14   17.8   308    32.2   870.7    0.00 
 338   16:20   0.01   45.3    14   20.2   309    30.2   870.7    0.00 
 338   16:30   0.00   45.7    15   21.6   306    32.5   870.6    0.00 
 338   16:40   0.00   46.0    15   21.8   310    31.9   870.7    0.00 
 338   16:50   0.00   46.0    15   21.0   308    32.6   870.9    0.00 
 338   17:00   0.00   46.2    15   22.0   308    33.2   870.9    0.00 
 338   17:10   0.00   46.5    15   22.5   304    33.1   870.9    0.00 
 338   17:20   0.00   47.1    16   18.5   311    33.2   871.0    0.00 
 338   17:30   0.00   47.1    17   18.7   302    33.3   871.1    0.00 
 338   17:40   0.00   47.5    17   16.7   305    29.1   871.1    0.00 
 338   17:50   0.00   48.1    18   15.5   312    26.9   871.2    0.00 
 338   18:00   0.00   48.7    19   16.8   308    28.6   871.2    0.00 
 338   18:10   0.00   49.3    20   16.8   316    33.2   871.3    0.00 
 338   18:20   0.00   49.1    20   17.2   308    31.6   871.4    0.00 
 338   18:30   0.00   48.8    20   20.0   307    36.8   871.3    0.00 
 338   18:40   0.00   48.7    20   19.6   313    36.5   871.3    0.00 
 338   18:50   0.00   48.9    20   21.3   299    42.8   871.2    0.00 
 338   19:00   0.00   48.8    20   20.0   301    35.6   871.4    0.00 
 338   19:10   0.00   48.5    19   18.3   316    27.7   871.6    0.00 
 338   19:20   0.00   48.6    18   19.0   316    29.0   871.5    0.00 
 338   19:30   0.00   48.2    18   18.6   318    30.2   871.6    0.00 
 338   19:40   0.00   47.8    18   20.4   313    32.7   871.8    0.00 
 338   19:50   0.00   47.6    19   18.6   316    28.7   871.8    0.00 
 338   20:00   0.00   47.6    18   18.4   322    30.1   871.8    0.00 
 338   20:10   0.00   47.4    18   19.3   317    29.9   871.8    0.00 
 338   20:20   0.00   47.4    19   20.8   322    34.0   871.9    0.00 
 338   20:30   0.00   47.6    21   21.2   320    32.1   871.9    0.00 
 338   20:40   0.00   47.2    22   22.7   312    34.6   871.9    0.00 
 338   20:50   0.00   47.0    22   25.8   305    35.9   871.9    0.00 
 338   21:00   0.00   47.0    22   24.4   311    34.1   871.9    0.00 
 338   21:10   0.00   47.0    22   24.7   316    37.2   871.9    0.00 
 338   21:20   0.00   46.8    22   24.1   307    35.2   871.9    0.00 
 338   21:30   0.00   46.8    22   23.5   310    33.3   872.0    0.00 
 338   21:40   0.00   47.2    22   22.6   311    31.3   872.0    0.00 
 338   21:50   0.00   47.3    21   22.4   312    30.7   872.1    0.00 
 338   22:00   0.00   47.2    21   23.4   312    33.2   872.2    0.00 
 338   22:10   0.00   47.2    21   23.3   312    32.0   872.2    0.00 
 338   22:20   0.00   47.1    21   24.9   311    33.0   872.2    0.00 
 338   22:30   0.00   47.4    21   26.3   309    34.8   872.2    0.00 
 338   22:40   0.00   47.4    21   25.7   311    32.9   872.0    0.00 
 338   22:50   0.00   47.9    21   23.9   313    32.4   872.0    0.00 
 338   23:00   0.00   47.8    21   24.0   312    30.4   872.1    0.00 
 338   23:10   0.00   48.1    20   24.9   315    33.2   872.1    0.00 
 338   23:20   0.00   48.8    20   25.0   315    31.0   872.1    0.00 
 338   23:30   0.00   48.7    20   23.6   314    30.2   872.2    0.00 
 338   23:40   0.00   49.1    19   22.5   316    29.5   872.0    0.00 
 338   23:50   0.00   49.9    18   22.0   315    28.3   871.9    0.00 
 339    0:00   0.00   50.2    17   21.9   315    28.0   871.9    0.00 
 339    0:10   0.00   50.1    17   21.2   317    27.1   871.8    0.00 
 339    0:20   0.00   50.3    17   20.4   315    26.0   871.8    0.00 
 339    0:30   0.00   50.6    17   21.1   317    28.0   871.8    0.00 
 339    0:40   0.00   50.7    17   21.5   315    30.0   871.8    0.00 
 339    0:50   0.00   50.3    17   21.5   314    29.8   871.8    0.00 
 339    1:00   0.00   50.2    17   20.7   317    27.8   871.9    0.00 
 339    1:10   0.00   50.3    17   19.8   314    25.1   872.1    0.00 
 339    1:20   0.00   50.8    16   19.4   313    26.0   872.1    0.00 
 339    1:30   0.00   51.4    15   17.0   314    22.4   872.1    0.00 
 339    1:40   0.00   51.6    15   17.9   318    24.5   872.1    0.00 
 339    1:50   0.00   51.2    15   19.1   313    24.8   872.2    0.00 
 339    2:00   0.00   50.6    16   17.9   312    25.2   872.2    0.00 
 339    2:10   0.00   51.1    15   18.1   315    24.7   872.1    0.00 
 339    2:20   0.00   51.2    15   17.3   314    22.9   872.0    0.00 
 339    2:30   0.00   51.2    14   16.9   314    22.2   872.0    0.00 
 339    2:40   0.00   50.8    15   17.6   312    23.2   871.9    0.00 
 339    2:50   0.00   51.1    14   17.2   314    22.7   871.8    0.00 
 339    3:00   0.00   51.7    14   15.6   312    22.0   871.8    0.00 
 339    3:10   0.00   51.9    13   15.8   315    22.8   871.8    0.00 
 339    3:20   0.00   52.0    13   15.2   313    20.7   871.8    0.00 
 339    3:30   0.00   52.0    13   14.2   313    18.6   871.8    0.00 
 339    3:40   0.00   52.1    12   14.6   310    20.0   871.8    0.00 
 339    3:50   0.00   52.1    12   14.8   315    19.2   871.7    0.00 
 339    4:00   0.00   52.4    12   13.7   319    19.4   871.6    0.00 
 339    4:10   0.00   52.7    11   14.1   316    19.6   871.6    0.00 
 339    4:20   0.00   53.0    11   15.6   313    20.3   871.6    0.00 
 339    4:30   0.00   53.0    10   14.8   312    21.3   871.7    0.00 
 339    4:40   0.00   53.2    10   15.9   307    21.0   871.7    0.00 
 339    4:50   0.00   52.8    11   14.3   307    19.9   871.7    0.00 
 339    5:00   0.00   52.6    11   15.3   304    21.8   871.7    0.00 
 339    5:10   0.00   52.4    11   15.6   306    21.0   871.7    0.00 
 339    5:20   0.00   52.0    12   13.9   306    19.4   871.8    0.00 
 339    5:30   0.00   51.9    12   16.1   309    21.3   871.8    0.00 
 339    5:40   0.00   52.1    12   15.8   313    22.6   871.8    0.00 
 339    5:50   0.00   52.7    11   14.0   314    19.6   871.8    0.00 
 339    6:00   0.00   52.4    11   10.9   303    16.2   871.8    0.00 
 339    6:10   0.00   52.3    11   10.7   304    16.4   871.8    0.00 
 339    6:20   0.00   52.0    12    8.3   311    16.6   871.9    0.00 
 339    6:30   0.00   49.5    13    1.6    12     5.3   872.1    0.00 
 339    6:40   0.00   48.3    14    1.0   358     2.0   872.1    0.00 
 339    6:50   0.01   47.6    14    1.9   350     6.5   872.1    0.00 
 339    7:00   0.02   49.2    14    2.5   352     5.0   872.1    0.00 
 339    7:10   0.05   51.1    13    3.6   311    14.1   872.2    0.00 
 339    7:20   0.08   53.3    11    9.1   292    15.6   872.1    0.00 
 339    7:30   0.10   54.4    10   10.1   284    17.7   872.0    0.00 
 339    7:40   0.14   54.9    11    5.7   298    11.5   872.2    0.00 
 339    7:50   0.17   55.9    11    3.8   236     9.0   872.4    0.00 
 339    8:00   0.19   55.5    12    6.7   227    12.1   872.3    0.00 
 339    8:10   0.22   56.1    12    4.0    94     6.1   872.4    0.00 
 339    8:20   0.25   56.4    13    3.7   120     5.2   872.5    0.00 
 339    8:30   0.28   56.7    13    3.9    88     5.8   872.6    0.00 
 339    8:40   0.31   57.4    12    3.2   120     5.7   872.6    0.00 
 339    8:50   0.34   58.4    12    2.4   105     5.0   872.9    0.00 
 339    9:00   0.36   60.3    11    1.4   187     2.2   873.0    0.00 
 339    9:10   0.39   60.2    12    2.7   155     6.6   873.1    0.00 
 339    9:20   0.41   58.8    12    2.9   132     5.3   873.2    0.00 
 339    9:30   0.43   58.5    12    3.9   119     6.1   873.1    0.00 
 339    9:40   0.45   59.5    11    1.5   155     4.6   873.1    0.00 
 339    9:50   0.47   61.7    11    2.3   167     5.3   873.2    0.00 
 339   10:00   0.49   62.1    11    1.5   216     4.2   873.2    0.00 
 339   10:10   0.51   62.2    10    2.2   184     4.2   873.1    0.00 
 339   10:20   0.52   61.8    11    2.3   182     4.3   873.1    0.00 
 339   10:30   0.53   61.6    11    1.9   170     4.2   873.1    0.00 
 339   10:40   0.55   62.5    10    2.5   187     4.6   872.9    0.00 
 339   10:50   0.56   62.4    11    2.8   199     6.9   872.8    0.00 
 339   11:00   0.56   61.6    11    3.1   201     6.4   872.6    0.00 

Return to Sweeney Granite Mountains graphs page.


Western Regional Climate Center,wrcc@dri.edu